Chesterfield, Michigan
Current Conditions -  °F | °C
As of 7:16 AM on Tuesday 27 Jan 2015 (Local Time) from KMTC Reporting Station
Broken Clouds Broken Clouds  
Wind Chill:   Ceiling: 2100
Heat Index: 12°   Visibility: 12mi
Dew Point:   Wind: 5mph
Humidity: 79%   Direction: 80°E
Pressure: 30.02"   Gusts: NA
Location:  42.6875°N, 82.8325°W
Report Text: KMTC 271216Z 08004KT 12SM BKN021 BKN120 M11/M14 A3002 RMK BKN021 V SCT
Loading
Personal Weather Stations






























Interactive Weather Map New forecast layout! Learn more

10-Day Weather Forecast

Advertisements
Track Severe Weather on mobile